sensor_id;sensor_type;location;lat;lon;timestamp;pressure;altitude;pressure_sealevel;temperature;humidity
30516;BME280;17297;54.022;10.760;2023-12-07T00:00:26;101631.94;;;4.00;73.41
30516;BME280;17297;54.022;10.760;2023-12-07T00:02:51;101628.44;;;4.00;73.45
30516;BME280;17297;54.022;10.760;2023-12-07T00:05:17;101637.25;;;4.00;73.46
30516;BME280;17297;54.022;10.760;2023-12-07T00:07:42;101629.28;;;4.00;73.24
30516;BME280;17297;54.022;10.760;2023-12-07T00:10:08;101623.13;;;4.00;73.59
30516;BME280;17297;54.022;10.760;2023-12-07T00:12:33;101634.59;;;4.00;73.54
30516;BME280;17297;54.022;10.760;2023-12-07T00:14:58;101631.09;;;4.00;73.24
30516;BME280;17297;54.022;10.760;2023-12-07T00:17:24;101639.94;;;4.00;73.44
30516;BME280;17297;54.022;10.760;2023-12-07T00:19:50;101639.09;;;4.00;73.38
30516;BME280;17297;54.022;10.760;2023-12-07T00:22:19;101642.69;;;3.99;73.36
30516;BME280;17297;54.022;10.760;2023-12-07T00:24:44;101650.56;;;4.00;73.35
30516;BME280;17297;54.022;10.760;2023-12-07T00:27:09;101648.91;;;3.99;73.27
30516;BME280;17297;54.022;10.760;2023-12-07T00:29:39;101650.56;;;4.00;73.39
30516;BME280;17297;54.022;10.760;2023-12-07T00:32:05;101643.56;;;3.99;73.32
30516;BME280;17297;54.022;10.760;2023-12-07T00:34:31;101648.03;;;3.99;73.27
30516;BME280;17297;54.022;10.760;2023-12-07T00:36:57;101651.56;;;3.99;73.37
30516;BME280;17297;54.022;10.760;2023-12-07T00:39:22;101668.38;;;4.00;73.35
30516;BME280;17297;54.022;10.760;2023-12-07T00:41:48;101670.19;;;3.99;73.35
30516;BME280;17297;54.022;10.760;2023-12-07T00:44:14;101661.34;;;3.99;73.34
30516;BME280;17297;54.022;10.760;2023-12-07T00:46:39;101662.22;;;3.99;73.50
30516;BME280;17297;54.022;10.760;2023-12-07T00:49:05;101662.06;;;4.01;73.29
30516;BME280;17297;54.022;10.760;2023-12-07T00:51:30;101658.56;;;4.00;73.25
30516;BME280;17297;54.022;10.760;2023-12-07T00:53:57;101668.38;;;4.00;73.32
30516;BME280;17297;54.022;10.760;2023-12-07T00:56:23;101669.31;;;3.99;73.30
30516;BME280;17297;54.022;10.760;2023-12-07T00:58:48;101680.72;;;4.01;73.25
30516;BME280;17297;54.022;10.760;2023-12-07T01:01:14;101682.53;;;4.00;73.27
30516;BME280;17297;54.022;10.760;2023-12-07T01:03:39;101685.19;;;4.00;73.27
30516;BME280;17297;54.022;10.760;2023-12-07T01:06:06;101685.19;;;4.00;73.32
30516;BME280;17297;54.022;10.760;2023-12-07T01:08:31;101695.00;;;4.00;73.19
30516;BME280;17297;54.022;10.760;2023-12-07T01:10:57;101703.00;;;4.00;73.46
30516;BME280;17297;54.022;10.760;2023-12-07T01:13:22;101706.59;;;3.99;73.31
30516;BME280;17297;54.022;10.760;2023-12-07T01:15:49;101703.81;;;4.00;73.37
30516;BME280;17297;54.022;10.760;2023-12-07T01:18:14;101713.50;;;4.01;73.21
30516;BME280;17297;54.022;10.760;2023-12-07T01:20:39;101709.00;;;4.02;73.27
30516;BME280;17297;54.022;10.760;2023-12-07T01:23:05;101710.84;;;4.01;73.34
30516;BME280;17297;54.022;10.760;2023-12-07T01:25:30;101713.50;;;4.01;73.33
30516;BME280;17297;54.022;10.760;2023-12-07T01:27:55;101715.22;;;4.02;73.45
30516;BME280;17297;54.022;10.760;2023-12-07T01:30:21;101708.16;;;4.01;73.33
30516;BME280;17297;54.022;10.760;2023-12-07T01:32:46;101710.72;;;4.03;73.24
30516;BME280;17297;54.022;10.760;2023-12-07T01:35:11;101717.88;;;4.02;73.23
30516;BME280;17297;54.022;10.760;2023-12-07T01:37:37;101714.22;;;4.03;73.30
30516;BME280;17297;54.022;10.760;2023-12-07T01:40:03;101716.03;;;4.03;73.15
30516;BME280;17297;54.022;10.760;2023-12-07T01:42:31;101713.38;;;4.03;73.36
30516;BME280;17297;54.022;10.760;2023-12-07T01:44:56;101715.06;;;4.04;73.24
30516;BME280;17297;54.022;10.760;2023-12-07T01:47:21;101715.91;;;4.04;73.38
30516;BME280;17297;54.022;10.760;2023-12-07T01:49:47;101714.94;;;4.05;73.32
30516;BME280;17297;54.022;10.760;2023-12-07T01:52:13;101713.13;;;4.06;73.40
30516;BME280;17297;54.022;10.760;2023-12-07T01:54:38;101719.41;;;4.05;73.31
30516;BME280;17297;54.022;10.760;2023-12-07T01:57:04;101716.75;;;4.05;73.31
30516;BME280;17297;54.022;10.760;2023-12-07T01:59:29;101715.78;;;4.06;73.41
30516;BME280;17297;54.022;10.760;2023-12-07T02:01:55;101715.78;;;4.06;73.12
30516;BME280;17297;54.022;10.760;2023-12-07T02:04:20;101720.97;;;4.07;73.48
30516;BME280;17297;54.022;10.760;2023-12-07T02:06:45;101728.84;;;4.09;73.26
30516;BME280;17297;54.022;10.760;2023-12-07T02:09:11;101728.00;;;4.08;73.23
30516;BME280;17297;54.022;10.760;2023-12-07T02:11:36;101721.81;;;4.08;73.49
30516;BME280;17297;54.022;10.760;2023-12-07T02:14:01;101728.00;;;4.08;73.38
30516;BME280;17297;54.022;10.760;2023-12-07T02:16:31;101727.88;;;4.10;73.44
30516;BME280;17297;54.022;10.760;2023-12-07T02:21:56;101729.69;;;4.09;73.30
30516;BME280;17297;54.022;10.760;2023-12-07T02:24:26;101730.69;;;4.08;73.36
30516;BME280;17297;54.022;10.760;2023-12-07T02:26:52;101726.06;;;4.10;73.43
30516;BME280;17297;54.022;10.760;2023-12-07T02:29:17;101726.88;;;4.11;73.22
30516;BME280;17297;54.022;10.760;2023-12-07T02:31:43;101729.69;;;4.09;73.27
30516;BME280;17297;54.022;10.760;2023-12-07T02:34:09;101721.72;;;4.09;73.36
30516;BME280;17297;54.022;10.760;2023-12-07T02:36:35;101721.72;;;4.09;73.38
30516;BME280;17297;54.022;10.760;2023-12-07T02:39:03;101726.06;;;4.10;73.37
30516;BME280;17297;54.022;10.760;2023-12-07T02:41:31;101730.53;;;4.10;73.29
30516;BME280;17297;54.022;10.760;2023-12-07T02:43:57;101733.09;;;4.11;73.30
30516;BME280;17297;54.022;10.760;2023-12-07T02:46:24;101735.88;;;4.10;73.18
30516;BME280;17297;54.022;10.760;2023-12-07T02:48:49;101728.72;;;4.10;73.21
30516;BME280;17297;54.022;10.760;2023-12-07T02:51:14;101733.19;;;4.10;73.22
30516;BME280;17297;54.022;10.760;2023-12-07T02:53:40;101734.03;;;4.10;73.30
30516;BME280;17297;54.022;10.760;2023-12-07T02:56:06;101730.53;;;4.10;73.32
30516;BME280;17297;54.022;10.760;2023-12-07T02:58:31;101740.34;;;4.09;73.25
30516;BME280;17297;54.022;10.760;2023-12-07T03:00:56;101737.69;;;4.09;73.07
30516;BME280;17297;54.022;10.760;2023-12-07T03:03:22;101733.34;;;4.08;73.40
30516;BME280;17297;54.022;10.760;2023-12-07T03:05:47;101739.50;;;4.09;73.24
30516;BME280;17297;54.022;10.760;2023-12-07T03:08:12;101739.50;;;4.09;73.25
30516;BME280;17297;54.022;10.760;2023-12-07T03:10:38;101745.69;;;4.09;73.07
30516;BME280;17297;54.022;10.760;2023-12-07T03:13:03;101751.84;;;4.10;73.35
30516;BME280;17297;54.022;10.760;2023-12-07T03:15:29;101756.19;;;4.11;73.43
30516;BME280;17297;54.022;10.760;2023-12-07T03:17:54;101746.41;;;4.11;73.27
30516;BME280;17297;54.022;10.760;2023-12-07T03:20:20;101762.25;;;4.13;73.28
30516;BME280;17297;54.022;10.760;2023-12-07T03:22:45;101759.72;;;4.11;73.40
30516;BME280;17297;54.022;10.760;2023-12-07T03:25:10;101757.91;;;4.12;73.34
30516;BME280;17297;54.022;10.760;2023-12-07T03:27:36;101759.56;;;4.13;73.06
30516;BME280;17297;54.022;10.760;2023-12-07T03:30:01;101756.19;;;4.11;73.25
30516;BME280;17297;54.022;10.760;2023-12-07T03:32:27;101755.22;;;4.12;73.21
30516;BME280;17297;54.022;10.760;2023-12-07T03:34:52;101764.06;;;4.12;73.35
30516;BME280;17297;54.022;10.760;2023-12-07T03:37:18;101760.56;;;4.12;73.23
30516;BME280;17297;54.022;10.760;2023-12-07T03:39:43;101772.06;;;4.12;73.32
30516;BME280;17297;54.022;10.760;2023-12-07T03:42:08;101767.72;;;4.11;73.00
30516;BME280;17297;54.022;10.760;2023-12-07T03:44:33;101770.38;;;4.11;73.14
30516;BME280;17297;54.022;10.760;2023-12-07T03:46:59;101765.88;;;4.12;73.37
30516;BME280;17297;54.022;10.760;2023-12-07T03:49:24;101766.72;;;4.12;73.38
30516;BME280;17297;54.022;10.760;2023-12-07T03:51:50;101772.06;;;4.12;73.38
30516;BME280;17297;54.022;10.760;2023-12-07T03:54:15;101763.22;;;4.12;73.28
30516;BME280;17297;54.022;10.760;2023-12-07T03:56:40;101766.59;;;4.14;73.24
30516;BME280;17297;54.022;10.760;2023-12-07T03:59:06;101771.22;;;4.12;73.17
30516;BME280;17297;54.022;10.760;2023-12-07T04:01:31;101770.22;;;4.13;73.13
30516;BME280;17297;54.022;10.760;2023-12-07T04:03:57;101777.25;;;4.14;73.20
30516;BME280;17297;54.022;10.760;2023-12-07T04:06:23;101771.91;;;4.14;73.21
30516;BME280;17297;54.022;10.760;2023-12-07T04:08:49;101774.47;;;4.15;73.08
30516;BME280;17297;54.022;10.760;2023-12-07T04:11:14;101776.28;;;4.15;73.11
30516;BME280;17297;54.022;10.760;2023-12-07T04:13:40;101777.13;;;4.15;73.32
30516;BME280;17297;54.022;10.760;2023-12-07T04:16:07;101774.47;;;4.15;73.32
30516;BME280;17297;54.022;10.760;2023-12-07T04:18:32;101779.78;;;4.15;73.39
30516;BME280;17297;54.022;10.760;2023-12-07T04:20:58;101784.13;;;4.16;73.16
30516;BME280;17297;54.022;10.760;2023-12-07T04:23:23;101792.00;;;4.18;73.21
30516;BME280;17297;54.022;10.760;2023-12-07T04:25:49;101790.31;;;4.17;73.25
30516;BME280;17297;54.022;10.760;2023-12-07T04:28:14;101796.50;;;4.18;73.25
30516;BME280;17297;54.022;10.760;2023-12-07T04:30:39;101797.19;;;4.20;73.20
30516;BME280;17297;54.022;10.760;2023-12-07T04:33:05;101805.19;;;4.20;73.29
30516;BME280;17297;54.022;10.760;2023-12-07T04:35:30;101804.34;;;4.19;73.16
30516;BME280;17297;54.022;10.760;2023-12-07T04:37:56;101797.34;;;4.18;73.21
30516;BME280;17297;54.022;10.760;2023-12-07T04:40:22;101805.09;;;4.21;73.05
30516;BME280;17297;54.022;10.760;2023-12-07T04:42:47;101794.53;;;4.20;73.33
30516;BME280;17297;54.022;10.760;2023-12-07T04:45:12;101803.25;;;4.22;73.33
30516;BME280;17297;54.022;10.760;2023-12-07T04:47:38;101795.38;;;4.20;73.10
30516;BME280;17297;54.022;10.760;2023-12-07T04:50:04;101797.09;;;4.21;73.05
30516;BME280;17297;54.022;10.760;2023-12-07T04:52:29;101795.28;;;4.22;73.04
30516;BME280;17297;54.022;10.760;2023-12-07T04:54:55;101806.91;;;4.21;73.12
30516;BME280;17297;54.022;10.760;2023-12-07T04:57:20;101807.75;;;4.21;73.30
30516;BME280;17297;54.022;10.760;2023-12-07T04:59:46;101809.56;;;4.21;73.29
30516;BME280;17297;54.022;10.760;2023-12-07T05:02:15;101806.03;;;4.20;73.25
30516;BME280;17297;54.022;10.760;2023-12-07T05:04:41;101819.09;;;4.23;73.39
30516;BME280;17297;54.022;10.760;2023-12-07T05:07:07;101808.59;;;4.22;73.29
30516;BME280;17297;54.022;10.760;2023-12-07T05:09:32;101813.06;;;4.21;73.31
30516;BME280;17297;54.022;10.760;2023-12-07T05:11:58;101812.22;;;4.21;73.08
30516;BME280;17297;54.022;10.760;2023-12-07T05:14:23;101806.75;;;4.22;72.96
30516;BME280;17297;54.022;10.760;2023-12-07T05:16:48;101801.44;;;4.22;72.96
30516;BME280;17297;54.022;10.760;2023-12-07T05:19:22;101802.28;;;4.23;73.08
30516;BME280;17297;54.022;10.760;2023-12-07T05:21:47;101797.78;;;4.23;73.14
30516;BME280;17297;54.022;10.760;2023-12-07T05:24:13;101804.00;;;4.24;73.15
30516;BME280;17297;54.022;10.760;2023-12-07T05:26:41;101799.63;;;4.23;73.16
30516;BME280;17297;54.022;10.760;2023-12-07T05:29:06;101803.13;;;4.23;73.21
30516;BME280;17297;54.022;10.760;2023-12-07T05:31:31;101810.16;;;4.24;73.00
30516;BME280;17297;54.022;10.760;2023-12-07T05:33:57;101807.50;;;4.24;73.09
30516;BME280;17297;54.022;10.760;2023-12-07T05:36:22;101810.16;;;4.24;73.12
30516;BME280;17297;54.022;10.760;2023-12-07T05:38:48;101813.66;;;4.25;73.00
30516;BME280;17297;54.022;10.760;2023-12-07T05:41:13;101813.66;;;4.25;73.10
30516;BME280;17297;54.022;10.760;2023-12-07T05:43:42;101810.16;;;4.24;73.10
30516;BME280;17297;54.022;10.760;2023-12-07T05:46:07;101809.19;;;4.25;73.04
30516;BME280;17297;54.022;10.760;2023-12-07T05:48:33;101810.00;;;4.26;73.30
30516;BME280;17297;54.022;10.760;2023-12-07T05:50:58;101815.34;;;4.26;73.26
30516;BME280;17297;54.022;10.760;2023-12-07T05:53:24;101811.84;;;4.25;72.97
30516;BME280;17297;54.022;10.760;2023-12-07T05:55:49;101814.50;;;4.25;73.02
30516;BME280;17297;54.022;10.760;2023-12-07T05:58:15;101814.50;;;4.25;73.27
30516;BME280;17297;54.022;10.760;2023-12-07T06:00:43;101817.16;;;4.25;72.96
30516;BME280;17297;54.022;10.760;2023-12-07T06:03:08;101826.00;;;4.26;73.09
30516;BME280;17297;54.022;10.760;2023-12-07T06:05:37;101820.56;;;4.27;73.15
30516;BME280;17297;54.022;10.760;2023-12-07T06:08:03;101816.91;;;4.28;73.18
30516;BME280;17297;54.022;10.760;2023-12-07T06:10:29;101823.22;;;4.27;73.30
30516;BME280;17297;54.022;10.760;2023-12-07T06:12:55;101826.72;;;4.28;73.08
30516;BME280;17297;54.022;10.760;2023-12-07T06:15:21;101828.41;;;4.29;73.13
30516;BME280;17297;54.022;10.760;2023-12-07T06:17:47;101825.75;;;4.29;73.13
30516;BME280;17297;54.022;10.760;2023-12-07T06:20:12;101837.25;;;4.29;73.25
30516;BME280;17297;54.022;10.760;2023-12-07T06:22:37;101844.41;;;4.29;73.12
30516;BME280;17297;54.022;10.760;2023-12-07T06:25:03;101840.75;;;4.30;73.10
30516;BME280;17297;54.022;10.760;2023-12-07T06:27:29;101841.72;;;4.29;73.10
30516;BME280;17297;54.022;10.760;2023-12-07T06:29:54;101840.75;;;4.30;73.08
30516;BME280;17297;54.022;10.760;2023-12-07T06:32:19;101843.41;;;4.30;73.07
30516;BME280;17297;54.022;10.760;2023-12-07T06:34:45;101846.06;;;4.30;73.21
30516;BME280;17297;54.022;10.760;2023-12-07T06:37:10;101847.06;;;4.29;73.04
30516;BME280;17297;54.022;10.760;2023-12-07T06:39:36;101851.28;;;4.31;73.12
30516;BME280;17297;54.022;10.760;2023-12-07T06:42:01;101846.06;;;4.30;73.04
30516;BME280;17297;54.022;10.760;2023-12-07T06:44:27;101843.41;;;4.30;73.20
30516;BME280;17297;54.022;10.760;2023-12-07T06:46:52;101852.28;;;4.30;72.95
30516;BME280;17297;54.022;10.760;2023-12-07T06:49:18;101851.41;;;4.30;73.06
30516;BME280;17297;54.022;10.760;2023-12-07T06:51:44;101851.41;;;4.30;73.07
30516;BME280;17297;54.022;10.760;2023-12-07T06:54:09;101849.63;;;4.30;73.09
30516;BME280;17297;54.022;10.760;2023-12-07T06:56:35;101850.56;;;4.29;72.96
30516;BME280;17297;54.022;10.760;2023-12-07T06:59:01;101853.22;;;4.29;73.10
30516;BME280;17297;54.022;10.760;2023-12-07T07:01:26;101858.56;;;4.29;73.14
30516;BME280;17297;54.022;10.760;2023-12-07T07:03:51;101851.53;;;4.28;73.16
30516;BME280;17297;54.022;10.760;2023-12-07T07:06:17;101852.38;;;4.29;73.02
30516;BME280;17297;54.022;10.760;2023-12-07T07:08:42;101845.22;;;4.29;72.98
30516;BME280;17297;54.022;10.760;2023-12-07T07:11:12;101844.41;;;4.29;73.17
30516;BME280;17297;54.022;10.760;2023-12-07T07:13:39;101852.28;;;4.30;73.16
30516;BME280;17297;54.022;10.760;2023-12-07T07:16:04;101848.75;;;4.30;73.22
30516;BME280;17297;54.022;10.760;2023-12-07T07:18:30;101857.59;;;4.30;73.09
30516;BME280;17297;54.022;10.760;2023-12-07T07:20:55;101846.94;;;4.30;73.04
30516;BME280;17297;54.022;10.760;2023-12-07T07:23:20;101853.97;;;4.31;73.08
30516;BME280;17297;54.022;10.760;2023-12-07T07:25:46;101855.06;;;4.29;73.10
30516;BME280;17297;54.022;10.760;2023-12-07T07:28:11;101852.28;;;4.30;73.05
30516;BME280;17297;54.022;10.760;2023-12-07T07:30:37;101857.72;;;4.29;73.01
30516;BME280;17297;54.022;10.760;2023-12-07T07:33:02;101858.44;;;4.31;73.12
30516;BME280;17297;54.022;10.760;2023-12-07T07:35:28;101856.72;;;4.30;73.10
30516;BME280;17297;54.022;10.760;2023-12-07T07:37:54;101862.06;;;4.30;73.07
30516;BME280;17297;54.022;10.760;2023-12-07T07:40:19;101854.06;;;4.30;73.26
30516;BME280;17297;54.022;10.760;2023-12-07T07:42:44;101855.78;;;4.31;73.11
30516;BME280;17297;54.022;10.760;2023-12-07T07:45:10;101853.22;;;4.29;72.92
30516;BME280;17297;54.022;10.760;2023-12-07T07:47:36;101849.47;;;4.32;73.11
30516;BME280;17297;54.022;10.760;2023-12-07T07:50:01;101858.44;;;4.31;73.08
30516;BME280;17297;54.022;10.760;2023-12-07T07:52:34;101856.63;;;4.31;73.01
30516;BME280;17297;54.022;10.760;2023-12-07T07:55:00;101862.78;;;4.32;73.17
30516;BME280;17297;54.022;10.760;2023-12-07T07:57:28;101863.63;;;4.32;73.18
30516;BME280;17297;54.022;10.760;2023-12-07T07:59:53;101860.13;;;4.32;73.09
30516;BME280;17297;54.022;10.760;2023-12-07T08:02:20;101864.47;;;4.33;73.08
30516;BME280;17297;54.022;10.760;2023-12-07T08:04:46;101868.00;;;4.33;73.11
30516;BME280;17297;54.022;10.760;2023-12-07T08:07:11;101862.69;;;4.33;73.03
30516;BME280;17297;54.022;10.760;2023-12-07T08:09:36;101863.53;;;4.34;73.11
30516;BME280;17297;54.022;10.760;2023-12-07T08:12:02;101861.56;;;4.36;73.19
30516;BME280;17297;54.022;10.760;2023-12-07T08:14:27;101860.72;;;4.35;73.04
30516;BME280;17297;54.022;10.760;2023-12-07T08:16:53;101864.13;;;4.37;72.97
30516;BME280;17297;54.022;10.760;2023-12-07T08:19:18;101867.63;;;4.38;72.97
30516;BME280;17297;54.022;10.760;2023-12-07T08:21:44;101871.97;;;4.39;73.18
30516;BME280;17297;54.022;10.760;2023-12-07T08:24:09;101873.69;;;4.40;73.23
30516;BME280;17297;54.022;10.760;2023-12-07T08:26:36;101882.38;;;4.42;73.14
30516;BME280;17297;54.022;10.760;2023-12-07T08:29:01;101893.91;;;4.43;73.09
30516;BME280;17297;54.022;10.760;2023-12-07T08:31:27;101898.25;;;4.44;73.13
30516;BME280;17297;54.022;10.760;2023-12-07T08:33:52;101900.91;;;4.44;73.12
30516;BME280;17297;54.022;10.760;2023-12-07T08:36:17;101899.94;;;4.45;73.15
30516;BME280;17297;54.022;10.760;2023-12-07T08:38:43;101902.50;;;4.46;73.20
30516;BME280;17297;54.022;10.760;2023-12-07T08:41:08;101901.66;;;4.46;73.24
30516;BME280;17297;54.022;10.760;2023-12-07T08:43:34;101908.66;;;4.47;73.10
30516;BME280;17297;54.022;10.760;2023-12-07T08:45:59;101918.34;;;4.48;73.12
30516;BME280;17297;54.022;10.760;2023-12-07T08:48:24;101923.66;;;4.48;73.29
30516;BME280;17297;54.022;10.760;2023-12-07T08:50:50;101923.56;;;4.49;73.22
30516;BME280;17297;54.022;10.760;2023-12-07T08:53:16;101921.84;;;4.48;73.28
30516;BME280;17297;54.022;10.760;2023-12-07T08:55:41;101925.25;;;4.50;73.15
30516;BME280;17297;54.022;10.760;2023-12-07T08:58:07;101921.75;;;4.50;72.94
30516;BME280;17297;54.022;10.760;2023-12-07T09:00:33;101934.91;;;4.51;73.07
30516;BME280;17297;54.022;10.760;2023-12-07T09:02:58;101940.25;;;4.51;73.06
30516;BME280;17297;54.022;10.760;2023-12-07T09:05:26;101933.13;;;4.52;73.24
30516;BME280;17297;54.022;10.760;2023-12-07T09:07:51;101936.63;;;4.52;73.07
30516;BME280;17297;54.022;10.760;2023-12-07T09:10:18;101941.81;;;4.54;73.14
30516;BME280;17297;54.022;10.760;2023-12-07T09:12:43;101940.97;;;4.53;73.15
30516;BME280;17297;54.022;10.760;2023-12-07T09:15:09;101946.31;;;4.53;73.00
30516;BME280;17297;54.022;10.760;2023-12-07T09:17:35;101933.84;;;4.54;73.19
30516;BME280;17297;54.022;10.760;2023-12-07T09:20:04;101941.72;;;4.55;73.14
30516;BME280;17297;54.022;10.760;2023-12-07T09:22:29;101939.06;;;4.55;73.16
30516;BME280;17297;54.022;10.760;2023-12-07T09:24:55;101943.53;;;4.55;73.13
30516;BME280;17297;54.022;10.760;2023-12-07T09:27:20;101948.88;;;4.55;73.16
30516;BME280;17297;54.022;10.760;2023-12-07T09:29:45;101946.06;;;4.56;73.14
30516;BME280;17297;54.022;10.760;2023-12-07T09:32:12;101951.41;;;4.56;73.25
30516;BME280;17297;54.022;10.760;2023-12-07T09:34:39;101945.97;;;4.58;73.10
30516;BME280;17297;54.022;10.760;2023-12-07T09:37:08;101951.28;;;4.58;72.99
30516;BME280;17297;54.022;10.760;2023-12-07T09:39:34;101946.81;;;4.58;73.14
30516;BME280;17297;54.022;10.760;2023-12-07T09:42:00;101949.31;;;4.60;73.15
30516;BME280;17297;54.022;10.760;2023-12-07T09:44:26;101940.34;;;4.61;73.21
30516;BME280;17297;54.022;10.760;2023-12-07T09:46:51;101935.88;;;4.61;73.15
30516;BME280;17297;54.022;10.760;2023-12-07T09:49:16;101938.41;;;4.63;73.05
30516;BME280;17297;54.022;10.760;2023-12-07T09:51:43;101932.25;;;4.62;72.99
30516;BME280;17297;54.022;10.760;2023-12-07T09:54:09;101935.63;;;4.65;73.07
30516;BME280;17297;54.022;10.760;2023-12-07T09:56:36;101933.81;;;4.65;73.20
30516;BME280;17297;54.022;10.760;2023-12-07T09:59:01;101936.34;;;4.67;73.08
30516;BME280;17297;54.022;10.760;2023-12-07T10:01:30;101936.94;;;4.70;73.04
30516;BME280;17297;54.022;10.760;2023-12-07T10:04:21;101935.25;;;4.69;73.24
30516;BME280;17297;54.022;10.760;2023-12-07T10:06:52;101935.97;;;4.71;72.94
30516;BME280;17297;54.022;10.760;2023-12-07T10:09:18;101936.94;;;4.70;73.10
30516;BME280;17297;54.022;10.760;2023-12-07T10:11:47;101939.50;;;4.72;73.33
30516;BME280;17297;54.022;10.760;2023-12-07T10:14:12;101941.06;;;4.74;73.10
30516;BME280;17297;54.022;10.760;2023-12-07T10:16:38;101937.41;;;4.75;72.96
30516;BME280;17297;54.022;10.760;2023-12-07T10:19:14;101933.75;;;4.76;73.18
30516;BME280;17297;54.022;10.760;2023-12-07T10:21:41;101934.63;;;4.77;73.18
30516;BME280;17297;54.022;10.760;2023-12-07T10:24:07;101934.50;;;4.78;73.10
30516;BME280;17297;54.022;10.760;2023-12-07T10:26:33;101930.84;;;4.79;73.15
30516;BME280;17297;54.022;10.760;2023-12-07T10:29:01;101926.38;;;4.80;73.05
30516;BME280;17297;54.022;10.760;2023-12-07T10:31:27;101927.94;;;4.82;73.23
30516;BME280;17297;54.022;10.760;2023-12-07T10:33:52;101931.47;;;4.83;73.14
30516;BME280;17297;54.022;10.760;2023-12-07T10:36:19;101923.31;;;4.84;73.33
30516;BME280;17297;54.022;10.760;2023-12-07T10:38:44;101918.72;;;4.86;73.01
30516;BME280;17297;54.022;10.760;2023-12-07T10:41:12;101922.22;;;4.87;72.92
30516;BME280;17297;54.022;10.760;2023-12-07T10:43:42;101924.75;;;4.89;73.09
30516;BME280;17297;54.022;10.760;2023-12-07T10:46:09;101941.47;;;4.91;73.21
30516;BME280;17297;54.022;10.760;2023-12-07T10:48:35;101929.97;;;4.90;73.04
30516;BME280;17297;54.022;10.760;2023-12-07T10:51:06;101927.16;;;4.92;73.04
30516;BME280;17297;54.022;10.760;2023-12-07T10:53:38;101928.00;;;4.92;73.02
30516;BME280;17297;54.022;10.760;2023-12-07T10:56:10;101928.00;;;4.92;72.93
30516;BME280;17297;54.022;10.760;2023-12-07T10:58:35;101930.56;;;4.94;73.09
30516;BME280;17297;54.022;10.760;2023-12-07T11:01:01;101938.41;;;4.95;73.01
30516;BME280;17297;54.022;10.760;2023-12-07T11:03:28;101938.31;;;4.97;73.04
30516;BME280;17297;54.022;10.760;2023-12-07T11:05:54;101934.81;;;4.96;73.07
30516;BME280;17297;54.022;10.760;2023-12-07T11:08:28;101948.84;;;4.98;73.13
30516;BME280;17297;54.022;10.760;2023-12-07T11:11:12;101946.31;;;4.97;73.20
30516;BME280;17297;54.022;10.760;2023-12-07T11:13:47;101948.13;;;4.96;73.03
30516;BME280;17297;54.022;10.760;2023-12-07T11:16:14;101949.81;;;4.97;73.03
30516;BME280;17297;54.022;10.760;2023-12-07T11:18:39;101947.16;;;4.97;72.93
30516;BME280;17297;54.022;10.760;2023-12-07T11:21:05;101947.16;;;4.97;73.03
30516;BME280;17297;54.022;10.760;2023-12-07T11:23:31;101940.97;;;4.97;73.02
30516;BME280;17297;54.022;10.760;2023-12-07T11:25:56;101937.47;;;4.96;73.00
30516;BME280;17297;54.022;10.760;2023-12-07T11:28:54;101932.97;;;4.97;73.17
30516;BME280;17297;54.022;10.760;2023-12-07T11:31:21;101923.16;;;4.97;72.82
30516;BME280;17297;54.022;10.760;2023-12-07T11:33:46;101925.81;;;4.97;72.80
30516;BME280;17297;54.022;10.760;2023-12-07T11:36:13;101926.53;;;4.99;72.95
30516;BME280;17297;54.022;10.760;2023-12-07T11:41:34;101923.88;;;4.99;73.02
30516;BME280;17297;54.022;10.760;2023-12-07T11:44:00;101926.53;;;4.99;73.06
30516;BME280;17297;54.022;10.760;2023-12-07T11:46:25;101929.06;;;5.01;72.97
30516;BME280;17297;54.022;10.760;2023-12-07T11:48:51;101916.56;;;5.01;72.92
30516;BME280;17297;54.022;10.760;2023-12-07T11:51:17;101928.97;;;5.02;73.12
30516;BME280;17297;54.022;10.760;2023-12-07T11:53:43;101924.47;;;5.03;72.96
30516;BME280;17297;54.022;10.760;2023-12-07T11:56:10;101927.97;;;5.03;72.88
30516;BME280;17297;54.022;10.760;2023-12-07T11:58:36;101923.47;;;5.04;72.98
30516;BME280;17297;54.022;10.760;2023-12-07T12:01:03;101927.72;;;5.06;73.00
30516;BME280;17297;54.022;10.760;2023-12-07T12:03:30;101925.88;;;5.07;72.94
30516;BME280;17297;54.022;10.760;2023-12-07T12:05:57;101925.78;;;5.08;73.00
30516;BME280;17297;54.022;10.760;2023-12-07T12:08:23;101926.63;;;5.09;72.86
30516;BME280;17297;54.022;10.760;2023-12-07T12:10:50;101929.03;;;5.12;72.87
30516;BME280;17297;54.022;10.760;2023-12-07T12:13:18;101929.88;;;5.13;72.89
30516;BME280;17297;54.022;10.760;2023-12-07T12:15:44;101926.22;;;5.14;72.93
30516;BME280;17297;54.022;10.760;2023-12-07T12:18:10;101928.78;;;5.15;72.77
30516;BME280;17297;54.022;10.760;2023-12-07T12:20:37;101933.97;;;5.17;72.99
30516;BME280;17297;54.022;10.760;2023-12-07T12:23:03;101932.88;;;5.19;73.06
30516;BME280;17297;54.022;10.760;2023-12-07T12:25:29;101927.28;;;5.22;73.02
30516;BME280;17297;54.022;10.760;2023-12-07T12:28:01;101929.00;;;5.23;72.94
30516;BME280;17297;54.022;10.760;2023-12-07T12:30:27;101931.38;;;5.26;72.94
30516;BME280;17297;54.022;10.760;2023-12-07T12:32:53;101935.59;;;5.29;72.81
30516;BME280;17297;54.022;10.760;2023-12-07T12:35:19;101936.19;;;5.32;72.97
30516;BME280;17297;54.022;10.760;2023-12-07T12:37:46;101927.06;;;5.35;72.83
30516;BME280;17297;54.022;10.760;2023-12-07T12:40:21;101921.47;;;5.38;72.93
30516;BME280;17297;54.022;10.760;2023-12-07T12:42:49;101920.25;;;5.42;72.91
30516;BME280;17297;54.022;10.760;2023-12-07T12:45:16;101922.69;;;5.45;73.05
30516;BME280;17297;54.022;10.760;2023-12-07T12:47:44;101918.88;;;5.48;72.87
30516;BME280;17297;54.022;10.760;2023-12-07T12:50:11;101916.09;;;5.49;73.04